sensor_id;sensor_type;location;lat;lon;timestamp;pressure;altitude;pressure_sealevel;temperature;humidity
23677;BME280;31493;49.058;12.190;2024-03-22T00:01:41;96807.38;;;6.47;100.00
23677;BME280;31493;49.058;12.190;2024-03-22T00:04:08;96792.47;;;6.54;100.00
23677;BME280;31493;49.058;12.190;2024-03-22T00:06:34;96782.69;;;6.43;100.00
23677;BME280;31493;49.058;12.190;2024-03-22T00:09:03;96782.22;;;6.34;100.00
23677;BME280;31493;49.058;12.190;2024-03-22T00:11:29;96784.88;;;6.32;100.00
23677;BME280;31493;49.058;12.190;2024-03-22T00:13:56;96781.78;;;6.24;100.00
23677;BME280;31493;49.058;12.190;2024-03-22T00:16:22;96776.88;;;6.18;100.00
23677;BME280;31493;49.058;12.190;2024-03-22T00:18:49;96776.00;;;6.19;100.00
23677;BME280;31493;49.058;12.190;2024-03-22T00:21:15;96784.53;;;6.40;100.00
23677;BME280;31493;49.058;12.190;2024-03-22T00:23:42;96774.16;;;6.41;100.00
23677;BME280;31493;49.058;12.190;2024-03-22T00:26:10;96771.25;;;6.49;100.00
23677;BME280;31493;49.058;12.190;2024-03-22T00:28:37;96766.94;;;6.49;100.00
23677;BME280;31493;49.058;12.190;2024-03-22T00:31:03;96774.78;;;6.46;100.00
23677;BME280;31493;49.058;12.190;2024-03-22T00:33:30;96764.84;;;6.39;100.00
23677;BME280;31493;49.058;12.190;2024-03-22T00:35:57;96762.25;;;6.39;100.00
23677;BME280;31493;49.058;12.190;2024-03-22T00:38:24;96754.72;;;6.34;100.00
23677;BME280;31493;49.058;12.190;2024-03-22T00:40:50;96754.72;;;6.34;100.00
23677;BME280;31493;49.058;12.190;2024-03-22T00:43:19;96754.72;;;6.34;100.00
23677;BME280;31493;49.058;12.190;2024-03-22T00:45:45;96753.13;;;6.32;100.00
23677;BME280;31493;49.058;12.190;2024-03-22T00:48:12;96753.06;;;6.52;100.00
23677;BME280;31493;49.058;12.190;2024-03-22T00:50:38;96750.09;;;6.61;100.00
23677;BME280;31493;49.058;12.190;2024-03-22T00:53:05;96750.78;;;6.65;100.00
23677;BME280;31493;49.058;12.190;2024-03-22T00:55:33;96745.81;;;6.60;100.00
23677;BME280;31493;49.058;12.190;2024-03-22T00:58:00;96743.47;;;6.56;100.00
23677;BME280;31493;49.058;12.190;2024-03-22T01:00:28;96742.56;;;6.57;100.00
23677;BME280;31493;49.058;12.190;2024-03-22T01:02:55;96744.09;;;6.61;100.00
23677;BME280;31493;49.058;12.190;2024-03-22T01:05:21;96737.34;;;6.58;100.00
23677;BME280;31493;49.058;12.190;2024-03-22T01:07:48;96740.81;;;6.57;100.00
23677;BME280;31493;49.058;12.190;2024-03-22T01:10:14;96732.19;;;6.58;100.00
23677;BME280;31493;49.058;12.190;2024-03-22T01:12:41;96737.63;;;6.52;100.00
23677;BME280;31493;49.058;12.190;2024-03-22T01:15:08;96733.22;;;6.35;100.00
23677;BME280;31493;49.058;12.190;2024-03-22T01:17:36;96739.06;;;6.20;100.00
23677;BME280;31493;49.058;12.190;2024-03-22T01:20:02;96742.09;;;6.09;100.00
23677;BME280;31493;49.058;12.190;2024-03-22T01:22:30;96740.81;;;5.99;100.00
23677;BME280;31493;49.058;12.190;2024-03-22T01:24:56;96746.47;;;5.87;100.00
23677;BME280;31493;49.058;12.190;2024-03-22T01:27:23;96739.06;;;5.99;100.00
23677;BME280;31493;49.058;12.190;2024-03-22T01:29:49;96741.06;;;5.93;100.00
23677;BME280;31493;49.058;12.190;2024-03-22T01:32:16;96730.72;;;5.94;100.00
23677;BME280;31493;49.058;12.190;2024-03-22T01:34:44;96725.81;;;6.09;100.00
23677;BME280;31493;49.058;12.190;2024-03-22T01:37:11;96736.28;;;6.04;100.00
23677;BME280;31493;49.058;12.190;2024-03-22T01:39:36;96728.84;;;5.98;100.00
23677;BME280;31493;49.058;12.190;2024-03-22T01:42:04;96733.56;;;5.88;100.00
23677;BME280;31493;49.058;12.190;2024-03-22T01:44:32;96731.38;;;5.79;100.00
23677;BME280;31493;49.058;12.190;2024-03-22T01:46:59;96730.91;;;5.90;100.00
23677;BME280;31493;49.058;12.190;2024-03-22T01:49:25;96729.94;;;5.92;100.00
23677;BME280;31493;49.058;12.190;2024-03-22T01:51:54;96725.53;;;5.76;100.00
23677;BME280;31493;49.058;12.190;2024-03-22T01:54:21;96718.41;;;5.81;100.00
23677;BME280;31493;49.058;12.190;2024-03-22T01:56:48;96718.63;;;5.76;100.00
23677;BME280;31493;49.058;12.190;2024-03-22T01:59:14;96724.63;;;5.77;100.00
23677;BME280;31493;49.058;12.190;2024-03-22T02:01:42;96722.22;;;5.92;100.00
23677;BME280;31493;49.058;12.190;2024-03-22T02:04:09;96703.09;;;5.98;100.00
23677;BME280;31493;49.058;12.190;2024-03-22T02:06:36;96708.44;;;5.93;100.00
23677;BME280;31493;49.058;12.190;2024-03-22T02:09:04;96709.59;;;5.86;100.00
23677;BME280;31493;49.058;12.190;2024-03-22T02:11:31;96701.56;;;5.73;100.00
23677;BME280;31493;49.058;12.190;2024-03-22T02:13:57;96701.84;;;5.67;100.00
23677;BME280;31493;49.058;12.190;2024-03-22T02:16:24;96689.94;;;5.65;100.00
23677;BME280;31493;49.058;12.190;2024-03-22T02:18:50;96692.19;;;5.72;100.00
23677;BME280;31493;49.058;12.190;2024-03-22T02:21:17;96689.63;;;5.72;100.00
23677;BME280;31493;49.058;12.190;2024-03-22T02:23:45;96697.53;;;5.68;100.00
23677;BME280;31493;49.058;12.190;2024-03-22T02:26:12;96686.53;;;5.64;100.00
23677;BME280;31493;49.058;12.190;2024-03-22T02:28:38;96685.13;;;5.57;100.00
23677;BME280;31493;49.058;12.190;2024-03-22T02:31:05;96685.06;;;5.59;100.00
23677;BME280;31493;49.058;12.190;2024-03-22T02:33:31;96678.88;;;5.63;100.00
23677;BME280;31493;49.058;12.190;2024-03-22T02:35:58;96685.31;;;5.73;100.00
23677;BME280;31493;49.058;12.190;2024-03-22T02:38:24;96684.91;;;5.62;100.00
23677;BME280;31493;49.058;12.190;2024-03-22T02:40:52;96678.69;;;5.67;100.00
23677;BME280;31493;49.058;12.190;2024-03-22T02:43:19;96677.78;;;5.68;100.00
23677;BME280;31493;49.058;12.190;2024-03-22T02:45:47;96672.75;;;5.86;100.00
23677;BME280;31493;49.058;12.190;2024-03-22T02:48:14;96663.69;;;5.77;100.00
23677;BME280;31493;49.058;12.190;2024-03-22T02:50:40;96666.34;;;5.76;100.00
23677;BME280;31493;49.058;12.190;2024-03-22T02:53:08;96673.09;;;5.78;100.00
23677;BME280;31493;49.058;12.190;2024-03-22T02:55:37;96670.06;;;5.89;100.00
23677;BME280;31493;49.058;12.190;2024-03-22T02:58:06;96663.63;;;5.79;100.00
23677;BME280;31493;49.058;12.190;2024-03-22T03:00:35;96664.03;;;5.69;100.00
23677;BME280;31493;49.058;12.190;2024-03-22T03:03:03;96669.75;;;5.76;100.00
23677;BME280;31493;49.058;12.190;2024-03-22T03:05:29;96659.25;;;5.60;100.00
23677;BME280;31493;49.058;12.190;2024-03-22T03:07:56;96654.03;;;5.62;100.00
23677;BME280;31493;49.058;12.190;2024-03-22T03:10:22;96654.94;;;5.61;100.00
23677;BME280;31493;49.058;12.190;2024-03-22T03:12:49;96642.50;;;5.52;100.00
23677;BME280;31493;49.058;12.190;2024-03-22T03:15:17;96653.63;;;5.52;100.00
23677;BME280;31493;49.058;12.190;2024-03-22T03:17:44;96636.78;;;5.45;100.00
23677;BME280;31493;49.058;12.190;2024-03-22T03:20:11;96642.72;;;5.66;100.00
23677;BME280;31493;49.058;12.190;2024-03-22T03:22:39;96643.88;;;5.79;100.00
23677;BME280;31493;49.058;12.190;2024-03-22T03:25:06;96638.59;;;5.62;100.00
23677;BME280;31493;49.058;12.190;2024-03-22T03:27:34;96633.41;;;5.63;100.00
23677;BME280;31493;49.058;12.190;2024-03-22T03:30:00;96635.47;;;5.76;100.00
23677;BME280;31493;49.058;12.190;2024-03-22T03:32:28;96620.44;;;5.85;100.00
23677;BME280;31493;49.058;12.190;2024-03-22T03:34:54;96640.19;;;5.85;100.00
23677;BME280;31493;49.058;12.190;2024-03-22T03:37:21;96624.81;;;5.83;100.00
23677;BME280;31493;49.058;12.190;2024-03-22T03:39:47;96638.59;;;5.82;100.00
23677;BME280;31493;49.058;12.190;2024-03-22T03:42:14;96627.75;;;5.76;100.00
23677;BME280;31493;49.058;12.190;2024-03-22T03:44:40;96639.31;;;5.65;100.00
23677;BME280;31493;49.058;12.190;2024-03-22T03:47:08;96631.16;;;5.56;100.00
23677;BME280;31493;49.058;12.190;2024-03-22T03:49:35;96638.88;;;5.56;100.00
23677;BME280;31493;49.058;12.190;2024-03-22T03:52:03;96636.91;;;5.42;100.00
23677;BME280;31493;49.058;12.190;2024-03-22T03:54:29;96625.59;;;5.46;100.00
23677;BME280;31493;49.058;12.190;2024-03-22T03:56:56;96626.09;;;5.54;100.00
23677;BME280;31493;49.058;12.190;2024-03-22T03:59:23;96620.75;;;5.59;100.00
23677;BME280;31493;49.058;12.190;2024-03-22T04:01:50;96619.28;;;5.53;100.00
23677;BME280;31493;49.058;12.190;2024-03-22T04:04:16;96620.81;;;5.57;100.00
23677;BME280;31493;49.058;12.190;2024-03-22T04:06:45;96619.81;;;5.41;100.00
23677;BME280;31493;49.058;12.190;2024-03-22T04:09:11;96611.44;;;5.36;100.00
23677;BME280;31493;49.058;12.190;2024-03-22T04:11:38;96602.00;;;5.16;100.00
23677;BME280;31493;49.058;12.190;2024-03-22T04:14:04;96601.94;;;5.17;100.00
23677;BME280;31493;49.058;12.190;2024-03-22T04:16:31;96599.03;;;5.05;100.00
23677;BME280;31493;49.058;12.190;2024-03-22T04:18:57;96597.38;;;4.82;100.00
23677;BME280;31493;49.058;12.190;2024-03-22T04:21:24;96603.31;;;4.84;100.00
23677;BME280;31493;49.058;12.190;2024-03-22T04:23:52;96605.91;;;4.82;100.00
23677;BME280;31493;49.058;12.190;2024-03-22T04:26:19;96609.94;;;4.89;100.00
23677;BME280;31493;49.058;12.190;2024-03-22T04:28:45;96615.03;;;4.91;100.00
23677;BME280;31493;49.058;12.190;2024-03-22T04:31:12;96610.22;;;4.82;100.00
23677;BME280;31493;49.058;12.190;2024-03-22T04:33:38;96619.06;;;4.75;100.00
23677;BME280;31493;49.058;12.190;2024-03-22T04:36:06;96622.53;;;4.74;100.00
23677;BME280;31493;49.058;12.190;2024-03-22T04:38:32;96618.47;;;4.68;100.00
23677;BME280;31493;49.058;12.190;2024-03-22T04:41:00;96627.09;;;4.45;100.00
23677;BME280;31493;49.058;12.190;2024-03-22T04:43:28;96621.25;;;4.42;100.00
23677;BME280;31493;49.058;12.190;2024-03-22T04:45:55;96628.28;;;4.36;100.00
23677;BME280;31493;49.058;12.190;2024-03-22T04:48:22;96621.13;;;4.45;100.00
23677;BME280;31493;49.058;12.190;2024-03-22T04:50:50;96614.94;;;4.27;100.00
23677;BME280;31493;49.058;12.190;2024-03-22T04:53:18;96631.69;;;4.37;100.00
23677;BME280;31493;49.058;12.190;2024-03-22T04:55:44;96627.75;;;4.28;100.00
23677;BME280;31493;49.058;12.190;2024-03-22T04:58:14;96614.47;;;4.39;100.00
23677;BME280;31493;49.058;12.190;2024-03-22T05:00:40;96620.78;;;4.54;100.00
23677;BME280;31493;49.058;12.190;2024-03-22T05:03:07;96615.84;;;4.26;100.00
23677;BME280;31493;49.058;12.190;2024-03-22T05:05:34;96604.16;;;4.41;100.00
23677;BME280;31493;49.058;12.190;2024-03-22T05:08:01;96598.13;;;4.20;100.00
23677;BME280;31493;49.058;12.190;2024-03-22T05:10:28;96597.03;;;4.25;100.00
23677;BME280;31493;49.058;12.190;2024-03-22T05:12:55;96606.97;;;4.34;100.00
23677;BME280;31493;49.058;12.190;2024-03-22T05:15:23;96607.31;;;4.25;100.00
23677;BME280;31493;49.058;12.190;2024-03-22T05:17:51;96607.16;;;4.30;100.00
23677;BME280;31493;49.058;12.190;2024-03-22T05:20:17;96614.84;;;4.30;100.00
23677;BME280;31493;49.058;12.190;2024-03-22T05:22:44;96612.34;;;4.28;100.00
23677;BME280;31493;49.058;12.190;2024-03-22T05:25:11;96612.84;;;4.15;100.00
23677;BME280;31493;49.058;12.190;2024-03-22T05:27:38;96611.16;;;4.37;100.00
23677;BME280;31493;49.058;12.190;2024-03-22T05:30:05;96604.69;;;4.49;100.00
23677;BME280;31493;49.058;12.190;2024-03-22T05:32:34;96607.97;;;4.30;100.00
23677;BME280;31493;49.058;12.190;2024-03-22T05:35:00;96605.50;;;4.27;100.00
23677;BME280;31493;49.058;12.190;2024-03-22T05:37:27;96604.50;;;4.09;100.00
23677;BME280;31493;49.058;12.190;2024-03-22T05:39:54;96608.75;;;4.10;100.00
23677;BME280;31493;49.058;12.190;2024-03-22T05:42:21;96597.66;;;4.10;100.00
23677;BME280;31493;49.058;12.190;2024-03-22T05:44:47;96601.28;;;4.26;100.00
23677;BME280;31493;49.058;12.190;2024-03-22T05:47:14;96595.50;;;4.43;100.00
23677;BME280;31493;49.058;12.190;2024-03-22T05:49:42;96590.16;;;4.70;100.00
23677;BME280;31493;49.058;12.190;2024-03-22T05:52:09;96599.09;;;4.61;100.00
23677;BME280;31493;49.058;12.190;2024-03-22T05:54:35;96609.28;;;4.84;100.00
23677;BME280;31493;49.058;12.190;2024-03-22T05:57:02;96610.28;;;4.80;100.00
23677;BME280;31493;49.058;12.190;2024-03-22T05:59:30;96615.94;;;4.88;100.00
23677;BME280;31493;49.058;12.190;2024-03-22T06:01:57;96609.19;;;4.86;100.00
23677;BME280;31493;49.058;12.190;2024-03-22T06:04:23;96605.16;;;5.02;100.00
23677;BME280;31493;49.058;12.190;2024-03-22T06:06:52;96603.75;;;5.15;100.00
23677;BME280;31493;49.058;12.190;2024-03-22T06:09:18;96606.97;;;5.21;100.00
23677;BME280;31493;49.058;12.190;2024-03-22T06:11:49;96614.34;;;5.08;100.00
23677;BME280;31493;49.058;12.190;2024-03-22T06:14:15;96615.03;;;4.91;100.00
23677;BME280;31493;49.058;12.190;2024-03-22T06:16:42;96602.63;;;5.01;100.00
23677;BME280;31493;49.058;12.190;2024-03-22T06:19:08;96614.19;;;4.89;100.00
23677;BME280;31493;49.058;12.190;2024-03-22T06:21:36;96606.16;;;4.98;100.00
23677;BME280;31493;49.058;12.190;2024-03-22T06:24:03;96598.47;;;4.98;100.00
23677;BME280;31493;49.058;12.190;2024-03-22T06:26:30;96604.34;;;5.00;100.00
23677;BME280;31493;49.058;12.190;2024-03-22T06:28:56;96601.53;;;5.06;100.00
23677;BME280;31493;49.058;12.190;2024-03-22T06:31:23;96605.16;;;5.02;100.00
23677;BME280;31493;49.058;12.190;2024-03-22T06:33:49;96599.16;;;5.22;100.00
23677;BME280;31493;49.058;12.190;2024-03-22T06:36:16;96593.78;;;5.28;100.00
23677;BME280;31493;49.058;12.190;2024-03-22T06:38:44;96591.31;;;5.45;100.00
23677;BME280;31493;49.058;12.190;2024-03-22T06:41:12;96589.50;;;5.47;100.00
23677;BME280;31493;49.058;12.190;2024-03-22T06:43:38;96586.88;;;5.29;100.00
23677;BME280;31493;49.058;12.190;2024-03-22T06:46:06;96590.28;;;5.29;100.00
23677;BME280;31493;49.058;12.190;2024-03-22T06:48:32;96575.25;;;5.40;100.00
23677;BME280;31493;49.058;12.190;2024-03-22T06:50:59;96581.16;;;5.42;100.00
23677;BME280;31493;49.058;12.190;2024-03-22T06:53:25;96576.91;;;5.41;100.00
23677;BME280;31493;49.058;12.190;2024-03-22T06:55:53;96578.03;;;5.55;100.00
23677;BME280;31493;49.058;12.190;2024-03-22T06:58:20;96569.50;;;5.54;100.00
23677;BME280;31493;49.058;12.190;2024-03-22T07:00:47;96573.84;;;5.91;100.00
23677;BME280;31493;49.058;12.190;2024-03-22T07:03:13;96572.63;;;5.80;100.00
23677;BME280;31493;49.058;12.190;2024-03-22T07:05:40;96561.03;;;5.71;100.00
23677;BME280;31493;49.058;12.190;2024-03-22T07:08:06;96575.09;;;6.02;100.00
23677;BME280;31493;49.058;12.190;2024-03-22T07:10:33;96570.56;;;6.07;100.00
23677;BME280;31493;49.058;12.190;2024-03-22T07:12:59;96574.91;;;6.23;100.00
23677;BME280;31493;49.058;12.190;2024-03-22T07:15:28;96579.72;;;5.93;100.00
23677;BME280;31493;49.058;12.190;2024-03-22T07:17:55;96580.72;;;5.72;100.00
23677;BME280;31493;49.058;12.190;2024-03-22T07:20:22;96573.97;;;6.07;100.00
23677;BME280;31493;49.058;12.190;2024-03-22T07:22:48;96572.91;;;5.73;100.00
23677;BME280;31493;49.058;12.190;2024-03-22T07:25:15;96572.59;;;6.00;100.00
23677;BME280;31493;49.058;12.190;2024-03-22T07:27:41;96567.00;;;5.71;100.00
23677;BME280;31493;49.058;12.190;2024-03-22T07:30:09;96557.91;;;6.02;100.00
23677;BME280;31493;49.058;12.190;2024-03-22T07:32:37;96564.25;;;5.76;100.00
23677;BME280;31493;49.058;12.190;2024-03-22T07:35:04;96566.66;;;5.60;100.00
23677;BME280;31493;49.058;12.190;2024-03-22T07:37:30;96576.28;;;5.94;100.00
23677;BME280;31493;49.058;12.190;2024-03-22T07:39:57;96581.16;;;6.00;100.00
23677;BME280;31493;49.058;12.190;2024-03-22T07:42:24;96575.50;;;6.11;100.00
23677;BME280;31493;49.058;12.190;2024-03-22T07:44:51;96572.44;;;6.03;100.00
23677;BME280;31493;49.058;12.190;2024-03-22T07:47:17;96578.78;;;6.15;100.00
23677;BME280;31493;49.058;12.190;2024-03-22T07:49:45;96568.53;;;6.32;100.00
23677;BME280;31493;49.058;12.190;2024-03-22T07:52:11;96581.69;;;6.26;100.00
23677;BME280;31493;49.058;12.190;2024-03-22T07:54:38;96570.91;;;6.54;100.00
23677;BME280;31493;49.058;12.190;2024-03-22T07:57:04;96571.44;;;6.43;100.00
23677;BME280;31493;49.058;12.190;2024-03-22T07:59:32;96560.63;;;6.35;100.00
23677;BME280;31493;49.058;12.190;2024-03-22T08:01:58;96561.81;;;6.47;100.00
23677;BME280;31493;49.058;12.190;2024-03-22T08:04:25;96556.09;;;6.40;100.00
23677;BME280;31493;49.058;12.190;2024-03-22T08:06:52;96561.44;;;6.54;100.00
23677;BME280;31493;49.058;12.190;2024-03-22T08:09:19;96561.38;;;6.56;100.00
23677;BME280;31493;49.058;12.190;2024-03-22T08:11:45;96561.06;;;6.97;100.00
23677;BME280;31493;49.058;12.190;2024-03-22T08:14:13;96546.47;;;6.80;100.00
23677;BME280;31493;49.058;12.190;2024-03-22T08:16:39;96575.03;;;6.75;100.00
23677;BME280;31493;49.058;12.190;2024-03-22T08:19:06;96554.78;;;6.68;100.00
23677;BME280;31493;49.058;12.190;2024-03-22T08:21:32;96554.00;;;6.48;100.00
23677;BME280;31493;49.058;12.190;2024-03-22T08:24:01;96550.81;;;6.61;100.00
23677;BME280;31493;49.058;12.190;2024-03-22T08:26:27;96543.69;;;6.48;100.00
23677;BME280;31493;49.058;12.190;2024-03-22T08:28:54;96535.69;;;6.18;100.00
23677;BME280;31493;49.058;12.190;2024-03-22T08:31:20;96536.28;;;6.23;100.00
23677;BME280;31493;49.058;12.190;2024-03-22T08:33:51;96537.75;;;6.29;100.00
23677;BME280;31493;49.058;12.190;2024-03-22T08:36:17;96532.25;;;6.18;100.00
23677;BME280;31493;49.058;12.190;2024-03-22T08:38:44;96545.19;;;6.35;100.00
23677;BME280;31493;49.058;12.190;2024-03-22T08:41:12;96550.78;;;6.26;100.00
23677;BME280;31493;49.058;12.190;2024-03-22T08:43:39;96558.13;;;6.87;100.00
23677;BME280;31493;49.058;12.190;2024-03-22T08:46:05;96551.63;;;6.80;100.00
23677;BME280;31493;49.058;12.190;2024-03-22T08:48:32;96550.19;;;6.74;100.00
23677;BME280;31493;49.058;12.190;2024-03-22T08:50:58;96555.84;;;6.64;100.00
23677;BME280;31493;49.058;12.190;2024-03-22T08:53:24;96560.69;;;6.70;100.00
23677;BME280;31493;49.058;12.190;2024-03-22T08:55:50;96556.13;;;6.58;100.00
23677;BME280;31493;49.058;12.190;2024-03-22T08:58:19;96547.56;;;6.92;100.00
23677;BME280;31493;49.058;12.190;2024-03-22T09:00:45;96541.66;;;7.07;100.00
23677;BME280;31493;49.058;12.190;2024-03-22T09:03:12;96538.03;;;6.94;100.00
23677;BME280;31493;49.058;12.190;2024-03-22T09:05:40;96542.19;;;6.96;100.00
23677;BME280;31493;49.058;12.190;2024-03-22T09:08:07;96546.91;;;7.05;100.00
23677;BME280;31493;49.058;12.190;2024-03-22T09:10:34;96556.13;;;7.27;100.00
23677;BME280;31493;49.058;12.190;2024-03-22T09:13:01;96552.59;;;7.12;100.00
23677;BME280;31493;49.058;12.190;2024-03-22T09:15:29;96540.66;;;7.09;100.00
23677;BME280;31493;49.058;12.190;2024-03-22T09:17:56;96528.06;;;7.21;100.00
23677;BME280;31493;49.058;12.190;2024-03-22T09:20:22;96545.66;;;7.30;100.00
23677;BME280;31493;49.058;12.190;2024-03-22T09:22:49;96531.69;;;7.51;100.00
23677;BME280;31493;49.058;12.190;2024-03-22T09:25:15;96531.47;;;7.21;100.00
23677;BME280;31493;49.058;12.190;2024-03-22T09:27:44;96531.84;;;7.31;100.00
23677;BME280;31493;49.058;12.190;2024-03-22T09:30:10;96520.72;;;7.64;100.00
23677;BME280;31493;49.058;12.190;2024-03-22T09:32:39;96535.81;;;7.87;100.00
23677;BME280;31493;49.058;12.190;2024-03-22T09:35:06;96526.88;;;8.40;100.00
23677;BME280;31493;49.058;12.190;2024-03-22T09:37:33;96524.31;;;8.70;100.00
23677;BME280;31493;49.058;12.190;2024-03-22T09:39:59;96523.88;;;8.78;100.00
23677;BME280;31493;49.058;12.190;2024-03-22T09:42:28;96521.53;;;8.73;100.00
23677;BME280;31493;49.058;12.190;2024-03-22T09:44:57;96527.03;;;8.83;100.00
23677;BME280;31493;49.058;12.190;2024-03-22T09:47:24;96526.97;;;8.68;100.00
23677;BME280;31493;49.058;12.190;2024-03-22T09:49:52;96526.59;;;8.60;100.00
23677;BME280;31493;49.058;12.190;2024-03-22T09:52:19;96507.69;;;8.44;100.00
23677;BME280;31493;49.058;12.190;2024-03-22T09:54:46;96517.34;;;8.86;100.00
23677;BME280;31493;49.058;12.190;2024-03-22T09:57:14;96514.28;;;9.24;100.00
23677;BME280;31493;49.058;12.190;2024-03-22T09:59:41;96507.47;;;8.93;100.00
23677;BME280;31493;49.058;12.190;2024-03-22T10:02:10;96510.81;;;9.09;100.00
23677;BME280;31493;49.058;12.190;2024-03-22T10:04:37;96514.72;;;9.16;100.00
23677;BME280;31493;49.058;12.190;2024-03-22T10:07:05;96508.66;;;9.32;100.00
23677;BME280;31493;49.058;12.190;2024-03-22T10:09:32;96511.63;;;9.26;100.00
23677;BME280;31493;49.058;12.190;2024-03-22T10:11:59;96499.34;;;9.43;100.00
23677;BME280;31493;49.058;12.190;2024-03-22T10:14:25;96497.38;;;9.75;100.00
23677;BME280;31493;49.058;12.190;2024-03-22T10:16:52;96499.97;;;9.75;100.00
23677;BME280;31493;49.058;12.190;2024-03-22T10:19:19;96492.75;;;9.52;100.00
23677;BME280;31493;49.058;12.190;2024-03-22T10:21:47;96483.59;;;9.46;100.00
23677;BME280;31493;49.058;12.190;2024-03-22T10:24:15;96486.19;;;9.46;100.00
23677;BME280;31493;49.058;12.190;2024-03-22T10:26:42;96482.97;;;9.57;100.00
23677;BME280;31493;49.058;12.190;2024-03-22T10:29:08;96483.88;;;9.70;100.00
23677;BME280;31493;49.058;12.190;2024-03-22T10:31:35;96461.97;;;9.47;100.00
23677;BME280;31493;49.058;12.190;2024-03-22T10:34:02;96469.94;;;9.44;100.00
23677;BME280;31493;49.058;12.190;2024-03-22T10:36:31;96469.06;;;9.72;100.00
23677;BME280;31493;49.058;12.190;2024-03-22T10:38:58;96460.22;;;9.48;100.00
23677;BME280;31493;49.058;12.190;2024-03-22T10:41:26;96455.03;;;9.62;100.00
23677;BME280;31493;49.058;12.190;2024-03-22T10:43:52;96453.63;;;9.98;100.00
23677;BME280;31493;49.058;12.190;2024-03-22T10:46:20;96442.47;;;9.56;100.00
23677;BME280;31493;49.058;12.190;2024-03-22T10:48:46;96457.41;;;9.65;100.00
23677;BME280;31493;49.058;12.190;2024-03-22T10:51:15;96447.56;;;9.85;100.00
23677;BME280;31493;49.058;12.190;2024-03-22T10:53:42;96443.53;;;9.81;100.00
23677;BME280;31493;49.058;12.190;2024-03-22T10:56:10;96438.97;;;9.84;100.00
23677;BME280;31493;49.058;12.190;2024-03-22T10:58:40;96438.06;;;10.12;100.00
23677;BME280;31493;49.058;12.190;2024-03-22T11:02:37;96433.59;;;10.14;100.00
23677;BME280;31493;49.058;12.190;2024-03-22T11:05:05;96415.75;;;10.10;100.00
23677;BME280;31493;49.058;12.190;2024-03-22T11:07:33;96415.75;;;10.37;100.00
23677;BME280;31493;49.058;12.190;2024-03-22T11:10:01;96407.19;;;10.62;100.00
23677;BME280;31493;49.058;12.190;2024-03-22T11:12:28;96412.13;;;10.52;100.00
23677;BME280;31493;49.058;12.190;2024-03-22T11:14:59;96392.06;;;10.81;100.00
23677;BME280;31493;49.058;12.190;2024-03-22T11:17:25;96396.69;;;10.50;100.00
23677;BME280;31493;49.058;12.190;2024-03-22T11:19:54;96399.56;;;10.33;100.00
23677;BME280;31493;49.058;12.190;2024-03-22T11:22:20;96393.53;;;10.33;100.00
23677;BME280;31493;49.058;12.190;2024-03-22T11:24:47;96387.97;;;10.51;100.00
23677;BME280;31493;49.058;12.190;2024-03-22T11:27:13;96385.91;;;10.56;100.00
23677;BME280;31493;49.058;12.190;2024-03-22T11:29:40;96380.91;;;10.41;100.00
23677;BME280;31493;49.058;12.190;2024-03-22T11:32:07;96392.53;;;10.48;100.00
23677;BME280;31493;49.058;12.190;2024-03-22T11:34:35;96383.47;;;10.28;100.00
23677;BME280;31493;49.058;12.190;2024-03-22T11:37:03;96372.81;;;10.33;100.00
23677;BME280;31493;49.058;12.190;2024-03-22T11:39:30;96373.31;;;10.25;100.00
23677;BME280;31493;49.058;12.190;2024-03-22T11:41:56;96368.94;;;10.13;100.00
23677;BME280;31493;49.058;12.190;2024-03-22T11:44:24;96360.75;;;10.19;100.00
23677;BME280;31493;49.058;12.190;2024-03-22T11:46:51;96353.59;;;10.22;100.00
23677;BME280;31493;49.058;12.190;2024-03-22T11:49:19;96350.44;;;10.57;100.00
23677;BME280;31493;49.058;12.190;2024-03-22T11:51:45;96344.53;;;10.55;100.00
23677;BME280;31493;49.058;12.190;2024-03-22T11:54:13;96350.13;;;10.74;100.00
23677;BME280;31493;49.058;12.190;2024-03-22T11:56:39;96336.31;;;10.74;100.00
23677;BME280;31493;49.058;12.190;2024-03-22T11:59:06;96334.75;;;10.71;100.00
23677;BME280;31493;49.058;12.190;2024-03-22T12:01:32;96327.22;;;10.81;100.00
23677;BME280;31493;49.058;12.190;2024-03-22T12:04:00;96341.63;;;10.72;100.00
23677;BME280;31493;49.058;12.190;2024-03-22T12:06:26;96337.88;;;10.89;100.00
23677;BME280;31493;49.058;12.190;2024-03-22T12:08:53;96329.56;;;10.97;100.00
23677;BME280;31493;49.058;12.190;2024-03-22T12:11:20;96327.25;;;11.18;100.00
23677;BME280;31493;49.058;12.190;2024-03-22T12:13:47;96321.56;;;11.49;100.00
23677;BME280;31493;49.058;12.190;2024-03-22T12:16:13;96317.38;;;11.95;100.00
23677;BME280;31493;49.058;12.190;2024-03-22T12:18:40;96298.44;;;12.16;100.00
23677;BME280;31493;49.058;12.190;2024-03-22T12:21:06;96291.22;;;12.33;100.00
23677;BME280;31493;49.058;12.190;2024-03-22T12:23:33;96290.03;;;12.48;100.00
23677;BME280;31493;49.058;12.190;2024-03-22T12:25:59;96287.44;;;12.13;100.00
23677;BME280;31493;49.058;12.190;2024-03-22T12:28:28;96279.16;;;11.97;100.00
23677;BME280;31493;49.058;12.190;2024-03-22T12:30:54;96264.59;;;11.94;100.00
23677;BME280;31493;49.058;12.190;2024-03-22T12:33:21;96271.78;;;11.55;100.00
23677;BME280;31493;49.058;12.190;2024-03-22T12:35:47;96266.19;;;11.73;100.00
23677;BME280;31493;49.058;12.190;2024-03-22T12:38:14;96251.63;;;12.05;100.00
23677;BME280;31493;49.058;12.190;2024-03-22T12:40:40;96249.81;;;11.83;100.00
23677;BME280;31493;49.058;12.190;2024-03-22T12:43:09;96253.91;;;11.75;100.00
23677;BME280;31493;49.058;12.190;2024-03-22T12:45:37;96253.13;;;11.85;100.00
23677;BME280;31493;49.058;12.190;2024-03-22T12:48:05;96247.25;;;12.06;100.00